Time;durP1;ratioP1;P1;durP2;ratioP2;P2;SDS_P1;SDS_P2;PMS_P1;PMS_P2;Temp;Humidity;BMP_temperature;BMP_pressure;BME280_temperature;BME280_humidity;BME280_pressure;Samples;Min_cycle;Max_cycle;Signal;HPM_P1;HPM_P2
2024/02/26 00:02:25;;;;;;;5.87;3.93;;;;;;;2.37;92.34;99488.16;5044252;28;20229;-69
2024/02/26 00:04:52;;;;;;;3.53;2.83;;;;;;;2.32;92.30;99493.66;5038314;28;20198;-70
2024/02/26 00:07:19;;;;;;;3.47;2.53;;;;;;;2.22;90.88;99483.63;5042188;28;20791;-71
2024/02/26 00:09:45;;;;;;;2.83;2.10;;;;;;;2.15;91.08;99484.88;5046623;28;20220;-70
2024/02/26 00:12:12;;;;;;;2.73;2.17;;;;;;;2.07;91.42;99486.09;5041705;28;20226;-70
2024/02/26 00:14:38;;;;;;;2.10;1.90;;;;;;;2.04;92.66;99490.63;5049629;28;20212;-70
2024/02/26 00:17:05;;;;;;;3.77;2.70;;;;;;;2.01;92.65;99486.34;5048442;28;20215;-70
2024/02/26 00:19:33;;;;;;;3.27;2.97;;;;;;;2.00;93.06;99487.28;5047963;28;20554;-71
2024/02/26 00:21:59;;;;;;;3.23;2.60;;;;;;;2.00;93.65;99489.91;5048690;28;20232;-71
2024/02/26 00:24:26;;;;;;;2.97;2.47;;;;;;;1.98;93.07;99486.50;5049786;28;20213;-71
2024/02/26 00:26:54;;;;;;;3.17;2.63;;;;;;;1.94;93.04;99495.47;5044912;28;20229;-70
2024/02/26 00:29:21;;;;;;;3.07;2.43;;;;;;;1.92;93.52;99489.44;5049235;28;20281;-70
2024/02/26 00:31:48;;;;;;;3.53;2.43;;;;;;;1.91;94.12;99482.47;5046263;28;20229;-70
2024/02/26 00:34:14;;;;;;;4.53;2.80;;;;;;;1.91;94.55;99486.88;5046210;28;20212;-72
2024/02/26 00:36:42;;;;;;;4.57;2.53;;;;;;;1.90;94.40;99474.66;5044169;28;20666;-70
2024/02/26 00:39:09;;;;;;;3.60;3.00;;;;;;;1.89;94.64;99483.47;5053037;28;20566;-70
2024/02/26 00:41:39;;;;;;;4.00;2.90;;;;;;;1.87;94.20;99490.56;5044138;28;20392;-71
2024/02/26 00:44:06;;;;;;;4.80;2.40;;;;;;;1.86;94.51;99487.06;5048679;28;20204;-69
2024/02/26 00:46:32;;;;;;;2.90;2.43;;;;;;;1.86;94.81;99491.47;5048047;28;20236;-71
2024/02/26 00:48:59;;;;;;;2.83;2.53;;;;;;;1.84;95.36;99482.81;5044629;28;20232;-70
2024/02/26 00:51:25;;;;;;;2.77;2.50;;;;;;;1.83;95.36;99484.59;5050201;28;20209;-71
2024/02/26 00:53:53;;;;;;;2.97;2.67;;;;;;;1.81;94.97;99477.69;5046541;28;20250;-70
2024/02/26 00:56:19;;;;;;;3.10;2.50;;;;;;;1.80;96.06;99484.72;5050866;28;20216;-72
2024/02/26 00:58:46;;;;;;;3.57;2.67;;;;;;;1.78;96.30;99486.59;5046551;28;20580;-71
2024/02/26 01:01:13;;;;;;;3.47;2.73;;;;;;;1.78;96.08;99483.97;5050779;28;20215;-70
2024/02/26 01:03:39;;;;;;;3.73;2.90;;;;;;;1.78;96.40;99483.97;5048887;28;20673;-72
2024/02/26 01:06:06;;;;;;;3.73;3.33;;;;;;;1.78;96.68;99481.34;5046818;28;20230;-71
2024/02/26 01:08:33;;;;;;;4.10;3.10;;;;;;;1.78;96.49;99478.72;5050868;28;20201;-71
2024/02/26 01:11:00;;;;;;;2.57;2.10;;;;;;;1.64;94.12;99489.81;5045658;28;20657;-70
2024/02/26 01:13:27;;;;;;;2.43;2.13;;;;;;;1.53;93.63;99486.00;5050560;28;20232;-70
2024/02/26 01:15:54;;;;;;;3.40;2.60;;;;;;;1.46;94.91;99489.81;5048564;28;20218;-71
2024/02/26 01:18:20;;;;;;;4.13;3.23;;;;;;;1.44;95.68;99494.25;5043418;28;20296;-71
2024/02/26 01:20:47;;;;;;;4.30;3.20;;;;;;;1.43;96.65;99489.97;5046366;28;20209;-70
2024/02/26 01:23:13;;;;;;;3.33;2.77;;;;;;;1.43;96.96;99488.19;5049652;28;20304;-70
2024/02/26 01:25:40;;;;;;;3.50;3.20;;;;;;;1.44;97.48;99486.38;5051561;28;20205;-70
2024/02/26 01:28:08;;;;;;;3.80;3.40;;;;;;;1.45;97.34;99485.47;5048591;28;20212;-69
2024/02/26 01:30:34;;;;;;;4.03;3.60;;;;;;;1.47;98.08;99486.25;5046628;28;20228;-71
2024/02/26 01:33:01;;;;;;;5.50;3.80;;;;;;;1.47;98.53;99484.50;5048279;28;20229;-71
2024/02/26 01:35:27;;;;;;;4.17;3.30;;;;;;;1.48;98.71;99483.56;5044541;28;20226;-69
2024/02/26 01:37:54;;;;;;;3.60;3.30;;;;;;;1.48;98.45;99483.56;5043477;28;20236;-70
2024/02/26 01:40:20;;;;;;;4.00;3.60;;;;;;;1.49;98.57;99474.78;5048617;28;20198;-69
2024/02/26 01:42:48;;;;;;;4.87;3.73;;;;;;;1.48;99.24;99477.47;5047690;28;20596;-70
2024/02/26 01:45:21;;;;;;;4.80;3.77;;;;;;;1.47;99.41;99470.53;5042131;28;20209;-72
2024/02/26 01:47:50;;;;;;;4.47;3.50;;;;;;;1.47;100.00;99479.25;5042783;28;20283;-71
2024/02/26 01:50:17;;;;;;;3.83;3.23;;;;;;;1.46;99.75;99479.31;5047750;28;20363;-71
2024/02/26 01:52:44;;;;;;;4.67;3.27;;;;;;;1.45;99.12;99474.97;5041055;28;20245;-72
2024/02/26 01:55:11;;;;;;;3.50;3.17;;;;;;;1.43;99.82;99484.72;5048400;28;20874;-71
2024/02/26 01:57:38;;;;;;;4.50;3.33;;;;;;;1.42;99.39;99480.38;5041871;28;20213;-72
2024/02/26 02:00:07;;;;;;;4.57;3.30;;;;;;;1.42;100.00;99481.25;5048923;28;20252;-71
2024/02/26 02:02:36;;;;;;;3.40;3.03;;;;;;;1.43;100.00;99479.47;5046385;28;20316;-71
2024/02/26 02:05:03;;;;;;;3.87;3.27;;;;;;;1.45;100.00;99474.97;5046502;28;20697;-70
2024/02/26 02:07:31;;;;;;;3.67;3.33;;;;;;;1.45;100.00;99481.06;5047465;28;20232;-71
2024/02/26 02:09:57;;;;;;;4.83;3.80;;;;;;;1.46;100.00;99495.91;5045730;28;20255;-71
2024/02/26 02:12:24;;;;;;;4.43;3.50;;;;;;;1.47;100.00;99488.88;5044080;28;20229;-69
2024/02/26 02:14:51;;;;;;;4.17;3.47;;;;;;;1.49;100.00;99489.66;5043352;28;20585;-72
2024/02/26 02:17:17;;;;;;;5.07;3.60;;;;;;;1.48;100.00;99491.44;5043810;28;20227;-71
2024/02/26 02:19:45;;;;;;;4.63;3.13;;;;;;;1.47;100.00;99481.88;5046254;28;20206;-71
2024/02/26 02:22:13;;;;;;;3.63;3.30;;;;;;;1.49;100.00;99495.78;5046104;28;20304;-71
2024/02/26 02:24:39;;;;;;;4.30;3.60;;;;;;;1.48;100.00;99487.97;5046549;28;20393;-72
2024/02/26 02:27:06;;;;;;;4.20;3.37;;;;;;;1.49;100.00;99484.41;5047555;28;20225;-71
2024/02/26 02:29:33;;;;;;;5.50;3.67;;;;;;;1.49;100.00;99487.91;5044889;28;20220;-70
2024/02/26 02:32:01;;;;;;;5.57;3.90;;;;;;;1.49;100.00;99490.53;5047003;28;20218;-71
2024/02/26 02:34:29;;;;;;;4.00;3.60;;;;;;;1.49;100.00;99484.41;5040827;28;20281;-70
2024/02/26 02:36:56;;;;;;;3.40;3.07;;;;;;;1.48;100.00;99478.31;5047666;28;20209;-71
2024/02/26 02:39:24;;;;;;;5.37;3.73;;;;;;;1.45;100.00;99488.94;5045462;28;20202;-71
2024/02/26 02:41:50;;;;;;;3.73;3.40;;;;;;;1.45;100.00;99480.22;5042569;28;20233;-71
2024/02/26 02:44:17;;;;;;;4.53;3.23;;;;;;;1.43;100.00;99482.09;5044700;28;20608;-73
2024/02/26 02:46:44;;;;;;;3.33;2.73;;;;;;;1.38;100.00;99477.91;5043225;28;20312;-71
2024/02/26 02:49:11;;;;;;;4.57;3.37;;;;;;;1.34;100.00;99486.81;5048501;28;20236;-70
2024/02/26 02:51:37;;;;;;;4.77;3.20;;;;;;;1.30;100.00;99487.88;5047076;28;22677;-70
2024/02/26 02:54:04;;;;;;;5.43;3.23;;;;;;;1.28;100.00;99494.09;5040387;28;20457;-70
2024/02/26 02:56:32;;;;;;;3.33;3.03;;;;;;;1.28;100.00;99499.34;5040735;28;20687;-71
2024/02/26 02:58:58;;;;;;;3.77;3.33;;;;;;;1.27;100.00;99501.09;5043500;28;20221;-70
2024/02/26 03:01:25;;;;;;;3.87;3.10;;;;;;;1.26;100.00;99499.41;5043097;28;20205;-70
2024/02/26 03:03:51;;;;;;;4.47;3.17;;;;;;;1.25;100.00;99508.22;5043023;28;20212;-72
2024/02/26 03:06:18;;;;;;;4.50;3.83;;;;;;;1.22;100.00;99503.09;5049206;28;20205;-71
2024/02/26 03:08:45;;;;;;;3.77;3.33;;;;;;;1.21;100.00;99498.78;5045836;28;20235;-71
2024/02/26 03:11:14;;;;;;;4.33;3.10;;;;;;;1.21;100.00;99500.53;5047444;28;20198;-70
2024/02/26 03:13:43;;;;;;;3.27;2.93;;;;;;;1.14;100.00;99492.06;5040959;28;20212;-70
2024/02/26 03:16:10;;;;;;;4.10;2.80;;;;;;;1.13;100.00;99498.25;5044566;28;20297;-70
2024/02/26 03:18:36;;;;;;;4.00;3.43;;;;;;;1.11;100.00;99505.31;5045577;28;20224;-71
2024/02/26 03:21:03;;;;;;;4.73;3.47;;;;;;;1.11;100.00;99504.47;5044935;28;20212;-72
2024/02/26 03:23:30;;;;;;;3.90;3.53;;;;;;;1.12;100.00;99507.03;5044195;28;20577;-71
2024/02/26 03:25:57;;;;;;;3.80;3.40;;;;;;;1.12;100.00;99506.16;5042329;28;20609;-71
2024/02/26 03:28:23;;;;;;;3.87;3.53;;;;;;;1.14;100.00;99499.94;5040370;28;20240;-70
2024/02/26 03:30:51;;;;;;;4.43;3.50;;;;;;;1.16;100.00;99507.75;5042781;28;20297;-70
2024/02/26 03:33:18;;;;;;;4.97;3.83;;;;;;;1.17;100.00;99504.22;5046082;28;20599;-72
2024/02/26 03:35:44;;;;;;;4.13;3.63;;;;;;;1.18;100.00;99508.53;5037670;28;20206;-71
2024/02/26 03:38:11;;;;;;;4.30;3.50;;;;;;;1.17;100.00;99504.22;5043760;28;20267;-71
2024/02/26 03:40:37;;;;;;;4.47;3.40;;;;;;;1.14;100.00;99505.19;5046775;28;20220;-71
2024/02/26 03:43:06;;;;;;;4.33;3.50;;;;;;;1.13;100.00;99505.25;5042016;28;20228;-70
2024/02/26 03:45:33;;;;;;;5.47;3.80;;;;;;;1.12;100.00;99504.41;5049678;28;20306;-70
2024/02/26 03:48:00;;;;;;;4.83;3.77;;;;;;;1.13;100.00;99503.47;5045571;28;20708;-69
2024/02/26 03:50:27;;;;;;;4.47;3.83;;;;;;;1.14;100.00;99499.09;5045651;28;20312;-70
2024/02/26 03:52:54;;;;;;;5.03;3.70;;;;;;;1.14;100.00;99497.31;5047940;28;20590;-70
2024/02/26 03:55:24;;;;;;;5.83;4.23;;;;;;;1.15;100.00;99493.78;5046561;28;20209;-69
2024/02/26 03:57:51;;;;;;;4.83;3.77;;;;;;;1.17;100.00;99494.56;5046687;28;20292;-69
2024/02/26 04:00:18;;;;;;;4.67;3.80;;;;;;;1.17;100.00;99491.94;5045164;28;20223;-70
2024/02/26 04:02:44;;;;;;;5.23;3.83;;;;;;;1.19;100.00;99497.13;5044235;28;20231;-71
2024/02/26 04:05:12;;;;;;;5.23;3.93;;;;;;;1.20;100.00;99504.94;5046845;28;20217;-70
2024/02/26 04:07:40;;;;;;;4.60;3.63;;;;;;;1.22;100.00;99497.00;5047709;28;20696;-70
2024/02/26 04:10:10;;;;;;;5.50;4.10;;;;;;;1.22;100.00;99497.84;5049206;28;20213;-69
2024/02/26 04:12:39;;;;;;;8.27;4.63;;;;;;;1.22;100.00;99500.47;5045500;28;20730;-69
2024/02/26 04:15:07;;;;;;;5.37;4.30;;;;;;;1.24;100.00;99505.66;5043654;28;20206;-70
2024/02/26 04:17:33;;;;;;;8.10;5.47;;;;;;;1.27;100.00;99513.38;5046294;28;20202;-70
2024/02/26 04:20:00;;;;;;;5.50;4.20;;;;;;;1.28;100.00;99507.22;5048634;28;20213;-70
2024/02/26 04:22:28;;;;;;;6.10;4.70;;;;;;;1.31;100.00;99504.44;5044229;28;20237;-70
2024/02/26 04:24:54;;;;;;;7.83;4.00;;;;;;;1.32;100.00;99512.25;5045939;28;20204;-69
2024/02/26 04:27:21;;;;;;;5.60;4.20;;;;;;;1.35;100.00;99514.75;5040909;28;20230;-70
2024/02/26 04:29:47;;;;;;;5.10;4.20;;;;;;;1.37;100.00;99512.91;5047437;28;20704;-69
2024/02/26 04:32:14;;;;;;;5.53;4.20;;;;;;;1.38;100.00;99519.88;5043734;28;20722;-70
2024/02/26 04:34:41;;;;;;;5.53;4.10;;;;;;;1.39;100.00;99518.09;5051474;28;20635;-70
2024/02/26 04:37:08;;;;;;;3.77;3.37;;;;;;;1.41;100.00;99528.53;5049909;28;20581;-70
2024/02/26 04:39:36;;;;;;;4.97;4.07;;;;;;;1.39;100.00;99532.06;5049682;28;20216;-69
2024/02/26 04:42:03;;;;;;;4.77;3.90;;;;;;;1.41;100.00;99529.38;5048063;28;20217;-70
2024/02/26 04:44:30;;;;;;;5.13;4.07;;;;;;;1.42;100.00;99538.09;5043790;28;20216;-69
2024/02/26 04:46:56;;;;;;;7.13;4.13;;;;;;;1.44;100.00;99546.72;5044939;28;20324;-70
2024/02/26 04:49:23;;;;;;;3.90;3.50;;;;;;;1.45;100.00;99551.91;5049487;28;20197;-70
2024/02/26 04:51:50;;;;;;;6.03;3.73;;;;;;;1.47;100.00;99564.97;5046983;28;20620;-69
2024/02/26 04:54:17;;;;;;;6.57;3.80;;;;;;;1.47;100.00;99560.56;5048366;28;20210;-68
2024/02/26 04:56:45;;;;;;;6.10;4.13;;;;;;;1.49;100.00;99555.25;5051890;28;20240;-70
2024/02/26 04:59:11;;;;;;;5.27;4.00;;;;;;;1.50;100.00;99556.97;5052763;28;20213;-70
2024/02/26 05:01:39;;;;;;;5.03;4.07;;;;;;;1.52;100.00;99549.88;5050652;28;20743;-69
2024/02/26 05:04:05;;;;;;;4.20;3.67;;;;;;;1.54;100.00;99567.28;5047610;28;20211;-70
2024/02/26 05:06:32;;;;;;;4.13;3.73;;;;;;;1.56;100.00;99561.97;5052347;28;20296;-69
2024/02/26 05:08:59;;;;;;;6.27;3.60;;;;;;;1.56;100.00;99557.56;5045745;28;20576;-70
2024/02/26 05:11:25;;;;;;;4.57;4.17;;;;;;;1.58;100.00;99557.50;5046510;28;20210;-70
2024/02/26 05:13:53;;;;;;;4.37;3.43;;;;;;;1.56;100.00;99559.34;5045080;28;20206;-70
2024/02/26 05:16:21;;;;;;;4.43;3.77;;;;;;;1.57;100.00;99561.03;5047109;28;20206;-70
2024/02/26 05:18:47;;;;;;;4.77;3.90;;;;;;;1.57;100.00;99559.28;5047448;28;20213;-70
2024/02/26 05:21:14;;;;;;;5.27;3.90;;;;;;;1.58;100.00;99560.97;5047538;28;20297;-70
2024/02/26 05:23:42;;;;;;;4.93;3.90;;;;;;;1.59;100.00;99561.81;5046727;28;20206;-68
2024/02/26 05:26:09;;;;;;;5.23;3.97;;;;;;;1.60;100.00;99563.53;5047155;28;20201;-70
2024/02/26 05:28:36;;;;;;;5.43;4.03;;;;;;;1.61;100.00;99567.88;5051024;28;20239;-69
2024/02/26 05:31:04;;;;;;;4.97;4.20;;;;;;;1.62;100.00;99573.03;5046851;28;20222;-70
2024/02/26 05:33:31;;;;;;;5.47;4.47;;;;;;;1.67;100.00;99567.56;5047270;28;20221;-70
2024/02/26 05:36:03;;;;;;;5.20;4.20;;;;;;;1.70;100.00;99572.69;5040847;28;20209;-70
2024/02/26 05:38:31;;;;;;;4.97;3.87;;;;;;;1.72;100.00;99569.09;5048129;28;20216;-70
2024/02/26 05:40:58;;;;;;;4.60;3.87;;;;;;;1.78;100.00;99578.47;5046161;28;20212;-69
2024/02/26 05:43:25;;;;;;;5.07;4.13;;;;;;;1.82;100.00;99577.38;5046583;28;20221;-70
2024/02/26 05:45:52;;;;;;;6.37;5.03;;;;;;;1.82;100.00;99571.28;5042081;28;20669;-70
2024/02/26 05:48:20;;;;;;;5.90;4.40;;;;;;;1.84;100.00;99570.31;5043086;28;20234;-69
2024/02/26 05:50:46;;;;;;;5.30;4.03;;;;;;;1.87;100.00;99574.56;5046599;28;20590;-68
2024/02/26 05:53:13;;;;;;;7.27;4.40;;;;;;;1.88;100.00;99574.50;5047305;28;20347;-69
2024/02/26 05:55:40;;;;;;;6.67;4.77;;;;;;;1.89;100.00;99573.59;5046835;28;20582;-68
2024/02/26 05:58:06;;;;;;;5.27;4.77;;;;;;;1.93;100.00;99569.06;5047433;28;20213;-69
2024/02/26 06:00:33;;;;;;;6.37;4.50;;;;;;;1.93;100.00;99583.03;5047675;28;20209;-70
2024/02/26 06:02:59;;;;;;;5.50;4.90;;;;;;;1.92;100.00;99573.44;5046184;28;20229;-70
2024/02/26 06:05:27;;;;;;;6.03;4.93;;;;;;;1.95;100.00;99578.56;5048424;28;20594;-69
2024/02/26 06:07:54;;;;;;;13.27;5.90;;;;;;;1.99;100.00;99587.97;5042640;28;20704;-70
2024/02/26 06:10:21;;;;;;;5.03;3.87;;;;;;;2.00;100.00;99589.69;5041217;28;20210;-69
2024/02/26 06:12:48;;;;;;;6.47;5.07;;;;;;;2.02;100.00;99594.88;5049181;28;20309;-70
2024/02/26 06:15:15;;;;;;;7.37;4.93;;;;;;;2.05;100.00;99590.34;5041865;28;20969;-70
2024/02/26 06:17:41;;;;;;;6.20;4.87;;;;;;;2.07;100.00;99592.91;5045957;28;20215;-69
2024/02/26 06:20:12;;;;;;;6.33;5.37;;;;;;;2.08;100.00;99599.88;5043923;28;20248;-69
2024/02/26 06:22:40;;;;;;;5.63;5.03;;;;;;;2.10;100.00;99605.91;5047513;28;20236;-69
2024/02/26 06:25:08;;;;;;;5.80;4.30;;;;;;;2.13;100.00;99612.78;5041137;28;20216;-69
2024/02/26 06:27:35;;;;;;;7.63;5.43;;;;;;;2.20;100.00;99614.19;5042037;28;20233;-70
2024/02/26 06:30:01;;;;;;;6.57;4.60;;;;;;;2.21;100.00;99616.75;5042060;28;20210;-69
2024/02/26 06:32:29;;;;;;;7.63;5.47;;;;;;;2.24;100.00;99613.16;5044348;28;20229;-70
2024/02/26 06:34:55;;;;;;;5.93;4.20;;;;;;;2.21;100.00;99626.41;5038521;28;20206;-69
2024/02/26 06:37:22;;;;;;;6.10;4.67;;;;;;;2.20;100.00;99624.72;5039449;28;20222;-70
2024/02/26 06:39:51;;;;;;;6.33;5.37;;;;;;;2.18;100.00;99626.53;5043786;28;20210;-69
2024/02/26 06:42:18;;;;;;;5.43;4.47;;;;;;;2.17;100.00;99625.69;5041951;28;20229;-69
2024/02/26 06:44:45;;;;;;;6.13;4.63;;;;;;;2.22;100.00;99641.25;5039918;28;20205;-69
2024/02/26 06:47:11;;;;;;;6.77;5.27;;;;;;;2.22;100.00;99639.47;5041759;28;20205;-70
2024/02/26 06:49:39;;;;;;;7.53;5.40;;;;;;;2.24;100.00;99652.53;5039490;28;20283;-70
2024/02/26 06:52:06;;;;;;;5.57;5.00;;;;;;;2.25;100.00;99651.63;5039653;28;20232;-69
2024/02/26 06:54:32;;;;;;;6.40;5.03;;;;;;;2.21;100.00;99650.06;5039388;28;20210;-68
2024/02/26 06:57:00;;;;;;;7.70;5.30;;;;;;;2.24;100.00;99657.81;5037507;28;20201;-68
2024/02/26 06:59:27;;;;;;;7.40;5.30;;;;;;;2.29;100.00;99668.97;5044259;28;20285;-68
2024/02/26 07:01:54;;;;;;;6.67;5.43;;;;;;;2.29;100.00;99664.56;5042956;28;20240;-69
2024/02/26 07:04:21;;;;;;;7.00;6.00;;;;;;;2.31;100.00;99667.97;5038386;28;20691;-69
2024/02/26 07:06:48;;;;;;;6.93;5.87;;;;;;;2.35;100.00;99676.53;5034491;28;20634;-69
2024/02/26 07:09:15;;;;;;;7.33;5.50;;;;;;;2.37;100.00;99678.19;5045946;28;21633;-69
2024/02/26 07:11:43;;;;;;;7.37;6.03;;;;;;;2.39;100.00;99683.38;5038536;28;20229;-69
2024/02/26 07:14:11;;;;;;;7.97;6.00;;;;;;;2.42;100.00;99678.84;5036704;28;20262;-69
2024/02/26 07:16:38;;;;;;;9.27;6.40;;;;;;;2.44;100.00;99684.88;5040602;28;20342;-70
2024/02/26 07:19:04;;;;;;;7.40;6.00;;;;;;;2.48;100.00;99688.22;5045468;28;20201;-69
2024/02/26 07:21:31;;;;;;;8.50;6.63;;;;;;;2.49;100.00;99684.69;5045124;28;20715;-70
2024/02/26 07:23:58;;;;;;;8.13;7.33;;;;;;;2.53;100.00;99686.22;5045646;28;20641;-69
2024/02/26 07:26:26;;;;;;;8.40;6.37;;;;;;;2.55;100.00;99688.78;5046264;28;20216;-69
2024/02/26 07:28:52;;;;;;;8.17;6.57;;;;;;;2.59;100.00;99691.22;5040264;28;20225;-69
2024/02/26 07:31:20;;;;;;;8.07;6.87;;;;;;;2.59;100.00;99678.06;5044227;28;20220;-69
2024/02/26 07:33:47;;;;;;;7.13;6.43;;;;;;;2.62;100.00;99680.56;5029790;28;20216;-69
2024/02/26 07:36:13;;;;;;;7.60;6.77;;;;;;;2.65;100.00;99683.06;5030027;28;20464;-69
2024/02/26 07:38:40;;;;;;;7.73;6.67;;;;;;;2.70;100.00;99683.66;5045698;28;20205;-69
2024/02/26 07:41:07;;;;;;;8.17;6.23;;;;;;;2.76;100.00;99683.41;5041183;28;20224;-70
2024/02/26 07:43:33;;;;;;;7.10;6.40;;;;;;;2.79;100.00;99679.78;5042522;28;20244;-70
2024/02/26 07:46:00;;;;;;;9.27;6.43;;;;;;;2.82;100.00;99681.41;5044294;28;20320;-69
2024/02/26 07:48:28;;;;;;;8.10;6.43;;;;;;;2.85;100.00;99687.38;5042274;28;20229;-69
2024/02/26 07:50:54;;;;;;;6.67;5.93;;;;;;;2.90;100.00;99682.72;5042049;28;20225;-70
2024/02/26 07:53:21;;;;;;;9.73;6.50;;;;;;;2.91;100.00;99681.81;5047289;28;20229;-70
2024/02/26 07:55:48;;;;;;;7.57;6.27;;;;;;;2.95;100.00;99679.91;5046224;28;20212;-69
2024/02/26 07:58:14;;;;;;;7.13;5.90;;;;;;;2.99;100.00;99684.94;5049179;28;20200;-70
2024/02/26 08:00:41;;;;;;;7.80;5.90;;;;;;;3.04;100.00;99687.38;5046970;28;20210;-69
2024/02/26 08:03:07;;;;;;;8.90;5.93;;;;;;;3.07;100.00;99674.88;5043810;28;20224;-70
2024/02/26 08:05:36;;;;;;;5.93;5.17;;;;;;;3.10;100.00;99681.78;5045072;28;20300;-69
2024/02/26 08:08:02;;;;;;;7.60;5.73;;;;;;;3.14;100.00;99683.34;5046982;28;20256;-69
2024/02/26 08:10:29;;;;;;;8.43;5.77;;;;;;;3.16;100.00;99681.50;5038860;28;20205;-69
2024/02/26 08:12:58;;;;;;;8.47;5.20;;;;;;;3.20;100.00;99692.75;5038417;28;20229;-69
2024/02/26 08:15:24;;;;;;;6.67;5.57;;;;;;;3.22;100.00;99691.75;5046495;28;21016;-70
2024/02/26 08:17:51;;;;;;;6.57;5.47;;;;;;;3.25;100.00;99688.09;5047687;28;20213;-69
2024/02/26 08:20:18;;;;;;;7.70;5.30;;;;;;;3.28;100.00;99694.06;5048386;28;20205;-70
2024/02/26 08:22:46;;;;;;;7.43;5.50;;;;;;;3.31;100.00;99686.00;5047984;28;20320;-70
2024/02/26 08:25:13;;;;;;;8.07;4.97;;;;;;;3.33;100.00;99684.16;5045293;28;20508;-69
2024/02/26 08:27:39;;;;;;;6.23;5.07;;;;;;;3.37;100.00;99690.13;5048988;28;20248;-70
2024/02/26 08:30:07;;;;;;;6.70;5.13;;;;;;;3.38;100.00;99690.06;5045830;28;20243;-69
2024/02/26 08:32:34;;;;;;;8.57;5.27;;;;;;;3.42;100.00;99688.97;5048518;28;20229;-69
2024/02/26 08:35:01;;;;;;;5.70;5.10;;;;;;;3.44;100.00;99684.47;5046568;28;20213;-69
2024/02/26 08:37:27;;;;;;;5.07;4.57;;;;;;;3.45;100.00;99683.53;5047578;28;20285;-70
2024/02/26 08:39:55;;;;;;;5.70;4.27;;;;;;;3.48;100.00;99683.41;5045533;28;20223;-69
2024/02/26 08:42:24;;;;;;;6.53;4.73;;;;;;;3.52;100.00;99673.56;5039931;28;20398;-70
2024/02/26 08:44:50;;;;;;;5.03;4.53;;;;;;;3.57;100.00;99662.81;5044053;28;20213;-69
2024/02/26 08:47:17;;;;;;;5.30;4.60;;;;;;;3.60;100.00;99666.13;5046486;28;21181;-70
2024/02/26 08:49:44;;;;;;;4.77;4.23;;;;;;;3.65;100.00;99665.91;5044115;28;20241;-70
2024/02/26 08:52:11;;;;;;;6.23;5.20;;;;;;;3.65;100.00;99671.16;5044713;28;20683;-69
2024/02/26 08:54:37;;;;;;;5.80;5.17;;;;;;;3.69;100.00;99685.91;5047207;28;20210;-70
2024/02/26 08:57:05;;;;;;;6.93;5.73;;;;;;;3.71;100.00;99694.56;5044443;28;20296;-69
2024/02/26 08:59:32;;;;;;;5.83;4.83;;;;;;;3.73;100.00;99688.31;5048308;28;20594;-70
2024/02/26 09:01:58;;;;;;;8.20;4.83;;;;;;;3.77;100.00;99688.97;5045920;28;20591;-69
2024/02/26 09:04:26;;;;;;;5.53;4.20;;;;;;;3.81;100.00;99687.88;5046312;28;20233;-70
2024/02/26 09:06:52;;;;;;;5.27;4.67;;;;;;;3.86;100.00;99696.41;5046852;28;20206;-69
2024/02/26 09:09:19;;;;;;;6.33;4.63;;;;;;;3.93;100.00;99700.47;5045723;28;20235;-70
2024/02/26 09:11:46;;;;;;;4.10;3.70;;;;;;;3.97;100.00;99693.22;5040955;28;20229;-70
2024/02/26 09:14:14;;;;;;;5.33;4.23;;;;;;;4.01;99.43;99698.25;5046232;28;20673;-70
2024/02/26 09:16:41;;;;;;;6.30;3.90;;;;;;;4.06;99.21;99695.41;5044718;28;20212;-70
2024/02/26 09:19:07;;;;;;;7.63;4.93;;;;;;;4.09;98.95;99692.63;5045743;28;20752;-69
2024/02/26 09:21:34;;;;;;;4.80;4.30;;;;;;;4.14;98.64;99696.69;5046273;28;20219;-70
2024/02/26 09:24:00;;;;;;;5.83;4.33;;;;;;;4.17;98.25;99693.91;5045821;28;20202;-69
2024/02/26 09:26:27;;;;;;;5.77;3.80;;;;;;;4.24;97.30;99698.84;5045840;28;20264;-69
2024/02/26 09:28:53;;;;;;;4.37;3.97;;;;;;;4.30;96.83;99704.63;5042077;28;20264;-70
2024/02/26 09:31:21;;;;;;;5.07;3.87;;;;;;;4.33;96.67;99701.84;5043646;28;20219;-69
2024/02/26 09:33:48;;;;;;;4.33;3.50;;;;;;;4.38;95.90;99706.88;5043620;28;20580;-70
2024/02/26 09:36:14;;;;;;;3.27;2.83;;;;;;;4.41;95.19;99698.81;5042765;28;20214;-70
2024/02/26 09:38:41;;;;;;;4.10;3.70;;;;;;;4.45;95.49;99705.63;5043579;28;20214;-69
2024/02/26 09:41:07;;;;;;;3.57;3.27;;;;;;;4.47;95.65;99702.00;5043709;28;20205;-69
2024/02/26 09:43:37;;;;;;;4.97;3.77;;;;;;;4.52;94.72;99709.63;5044151;28;20255;-69
2024/02/26 09:46:05;;;;;;;3.90;3.50;;;;;;;4.56;94.25;99721.72;5043588;28;20213;-69
2024/02/26 09:48:34;;;;;;;5.30;3.53;;;;;;;4.59;93.84;99724.19;5042302;28;22111;-70
2024/02/26 09:51:03;;;;;;;3.30;2.80;;;;;;;4.67;93.09;99736.97;5044178;28;20216;-69
2024/02/26 09:53:31;;;;;;;3.63;2.73;;;;;;;4.69;92.65;99745.66;5140035;22;20238;-73
2024/02/26 09:55:58;;;;;;;3.90;3.10;;;;;;;4.72;92.32;99743.69;5091746;28;20228;-75
2024/02/26 09:58:26;;;;;;;3.60;3.03;;;;;;;4.75;92.13;99743.53;5094883;28;20324;-76
2024/02/26 10:00:58;;;;;;;4.77;3.80;;;;;;;4.79;91.80;99747.72;5092298;28;20216;-73
2024/02/26 10:03:29;;;;;;;3.93;3.53;;;;;;;4.81;91.46;99748.50;5088312;28;20238;-76
2024/02/26 10:05:58;;;;;;;6.60;3.50;;;;;;;4.81;92.02;99745.00;5088270;28;20298;-75
2024/02/26 10:08:25;;;;;;;4.33;3.63;;;;;;;4.85;91.67;99749.16;5086913;28;20212;-74
2024/02/26 10:10:52;;;;;;;5.70;3.77;;;;;;;4.92;91.64;99750.53;5082420;28;20807;-72
2024/02/26 10:13:20;;;;;;;4.00;3.60;;;;;;;4.96;91.42;99762.63;5082652;28;20730;-74
2024/02/26 10:15:47;;;;;;;3.70;3.20;;;;;;;5.01;89.77;99759.75;5085251;28;20204;-73
2024/02/26 10:18:13;;;;;;;5.13;3.70;;;;;;;5.03;89.37;99761.34;5079508;28;20205;-72
2024/02/26 10:20:40;;;;;;;5.70;3.60;;;;;;;5.08;89.54;99766.38;5079967;28;20208;-74
2024/02/26 10:23:08;;;;;;;5.17;3.33;;;;;;;5.10;89.15;99772.44;5078733;28;20235;-72
2024/02/26 10:25:34;;;;;;;4.33;3.40;;;;;;;5.16;88.83;99774.75;5083912;28;20299;-74
2024/02/26 10:28:03;;;;;;;3.57;3.10;;;;;;;5.20;88.07;99769.19;5083891;28;20208;-75
2024/02/26 10:30:30;;;;;;;4.10;3.70;;;;;;;5.26;88.47;99765.38;5081963;28;20704;-75
2024/02/26 10:32:57;;;;;;;3.97;3.20;;;;;;;5.30;87.57;99769.56;5085338;28;20293;-74
2024/02/26 10:35:24;;;;;;;6.10;3.20;;;;;;;5.33;87.62;99766.75;5084663;28;20744;-72
2024/02/26 10:37:51;;;;;;;4.87;3.43;;;;;;;5.40;86.68;99769.88;5085620;28;20265;-74
2024/02/26 10:40:19;;;;;;;4.70;3.10;;;;;;;5.46;84.91;99777.47;5082341;28;20212;-74
2024/02/26 10:42:46;;;;;;;5.20;3.13;;;;;;;5.45;84.78;99779.25;5085352;28;20219;-75
2024/02/26 10:45:13;;;;;;;4.13;3.20;;;;;;;5.44;84.98;99768.78;5084659;28;20208;-75
2024/02/26 10:47:41;;;;;;;3.80;3.13;;;;;;;5.48;84.90;99767.66;5079223;28;20303;-74
2024/02/26 10:50:08;;;;;;;4.00;2.83;;;;;;;5.50;85.28;99779.00;5077899;28;20231;-75
2024/02/26 10:52:37;;;;;;;3.20;2.67;;;;;;;5.52;85.12;99766.56;5079041;28;20246;-74
2024/02/26 10:55:06;;;;;;;4.43;2.30;;;;;;;5.55;85.90;99767.22;5080670;28;20219;-74
2024/02/26 10:57:37;;;;;;;6.17;3.87;;;;;;;5.56;85.69;99766.28;5077038;28;20307;-72
2024/02/26 11:00:05;;;;;;;3.33;2.47;;;;;;;5.62;85.94;99758.94;5085819;28;20573;-72
2024/02/26 11:02:33;;;;;;;5.20;2.87;;;;;;;5.65;85.79;99757.00;5077695;28;20231;-72
2024/02/26 11:05:01;;;;;;;5.67;2.83;;;;;;;5.68;86.09;99753.34;5086440;28;20204;-75
2024/02/26 11:07:28;;;;;;;3.10;2.47;;;;;;;5.72;86.50;99754.88;5076623;28;20204;-74
2024/02/26 11:09:56;;;;;;;3.60;2.50;;;;;;;5.78;87.02;99760.63;5078676;28;20777;-75
2024/02/26 11:12:23;;;;;;;3.77;2.77;;;;;;;5.82;87.75;99753.38;5082325;28;20714;-76
2024/02/26 11:14:54;;;;;;;3.40;2.63;;;;;;;5.87;88.19;99762.75;5086616;28;20224;-77
2024/02/26 11:17:23;;;;;;;3.17;2.60;;;;;;;5.91;87.91;99759.00;5082373;28;20272;-74
2024/02/26 11:19:51;;;;;;;3.60;3.07;;;;;;;5.97;88.20;99763.09;5083773;28;20204;-75
2024/02/26 11:22:17;;;;;;;4.10;2.90;;;;;;;6.04;88.89;99763.59;5082005;28;20224;-75
2024/02/26 11:24:45;;;;;;;5.97;2.70;;;;;;;6.09;88.92;99769.47;5081806;28;20206;-75
2024/02/26 11:27:13;;;;;;;3.67;2.83;;;;;;;6.13;88.60;99769.16;5070792;28;20204;-75
2024/02/26 11:29:44;;;;;;;4.13;2.50;;;;;;;6.19;88.15;99774.09;5085080;28;20230;-77
2024/02/26 11:32:12;;;;;;;3.03;2.40;;;;;;;6.25;86.41;99779.03;5077133;28;20232;-75
2024/02/26 11:34:39;;;;;;;2.53;2.33;;;;;;;6.30;85.80;99780.53;5082566;28;20210;-73
2024/02/26 11:37:13;;;;;;;2.30;2.10;;;;;;;6.33;84.56;99783.00;5083298;28;20208;-77